sensor_id;sensor_type;location;lat;lon;timestamp;pressure;altitude;pressure_sealevel;temperature;humidity
65054;BME280;51639;47.828;35.038;2024-03-23T01:05:49;100273.31;;;3.58;100.00
65054;BME280;51639;47.828;35.038;2024-03-23T01:20:50;100290.56;;;3.91;100.00
65054;BME280;51639;47.828;35.038;2024-03-23T01:35:51;100286.25;;;3.83;100.00
65054;BME280;51639;47.828;35.038;2024-03-23T01:50:54;100287.38;;;3.82;100.00
65054;BME280;51639;47.828;35.038;2024-03-23T02:05:55;100281.31;;;3.88;100.00
65054;BME280;51639;47.828;35.038;2024-03-23T02:20:57;100273.97;;;3.82;100.00
65054;BME280;51639;47.828;35.038;2024-03-23T02:35:57;100262.72;;;3.69;100.00
65054;BME280;51639;47.828;35.038;2024-03-23T02:50:59;100262.91;;;3.87;100.00
65054;BME280;51639;47.828;35.038;2024-03-23T03:06:00;100251.25;;;3.08;100.00
65054;BME280;51639;47.828;35.038;2024-03-23T03:21:01;100260.53;;;3.15;100.00
65054;BME280;51639;47.828;35.038;2024-03-23T03:36:03;100262.13;;;3.49;100.00
65054;BME280;51639;47.828;35.038;2024-03-23T03:51:04;100267.09;;;3.47;100.00
65054;BME280;51639;47.828;35.038;2024-03-23T04:06:05;100272.41;;;3.43;100.00
65054;BME280;51639;47.828;35.038;2024-03-23T04:21:06;100270.81;;;3.39;100.00
65054;BME280;51639;47.828;35.038;2024-03-23T04:36:07;100269.88;;;3.95;100.00
65054;BME280;51639;47.828;35.038;2024-03-23T04:51:08;100282.22;;;4.95;100.00
65054;BME280;51639;47.828;35.038;2024-03-23T05:06:09;100289.50;;;4.94;100.00
65054;BME280;51639;47.828;35.038;2024-03-23T05:21:10;100308.75;;;5.87;100.00
65054;BME280;51639;47.828;35.038;2024-03-23T05:36:11;100296.84;;;5.95;100.00
65054;BME280;51639;47.828;35.038;2024-03-23T05:51:12;100296.25;;;7.70;100.00
65054;BME280;51639;47.828;35.038;2024-03-23T06:06:13;100312.72;;;8.52;100.00
65054;BME280;51639;47.828;35.038;2024-03-23T06:21:14;100312.50;;;9.52;95.83
65054;BME280;51639;47.828;35.038;2024-03-23T06:36:15;100301.00;;;10.02;91.22
65054;BME280;51639;47.828;35.038;2024-03-23T06:51:16;100318.19;;;11.36;76.72
65054;BME280;51639;47.828;35.038;2024-03-23T07:06:17;100308.31;;;13.27;64.78
65054;BME280;51639;47.828;35.038;2024-03-23T07:21:18;100302.31;;;14.25;59.27
65054;BME280;51639;47.828;35.038;2024-03-23T07:36:19;100289.53;;;14.34;59.43
65054;BME280;51639;47.828;35.038;2024-03-23T07:51:22;100279.19;;;15.11;57.84
65054;BME280;51639;47.828;35.038;2024-03-23T08:06:23;100270.19;;;15.85;53.53
65054;BME280;51639;47.828;35.038;2024-03-23T08:21:24;100273.16;;;17.22;51.88
65054;BME280;51639;47.828;35.038;2024-03-23T08:36:27;100247.97;;;17.93;49.43
65054;BME280;51639;47.828;35.038;2024-03-23T08:51:27;100236.94;;;18.74;48.58
65054;BME280;51639;47.828;35.038;2024-03-23T09:06:28;100225.97;;;19.18;46.31
65054;BME280;51639;47.828;35.038;2024-03-23T09:21:29;100216.28;;;19.82;44.43
65054;BME280;51639;47.828;35.038;2024-03-23T09:36:30;100202.31;;;20.05;43.75
65054;BME280;51639;47.828;35.038;2024-03-23T09:51:32;100189.59;;;20.49;42.85
65054;BME280;51639;47.828;35.038;2024-03-23T10:06:33;100186.59;;;19.91;45.15
65054;BME280;51639;47.828;35.038;2024-03-23T10:21:35;100161.38;;;20.19;43.80
65054;BME280;51639;47.828;35.038;2024-03-23T10:36:38;100152.97;;;19.87;44.18
65054;BME280;51639;47.828;35.038;2024-03-23T10:51:42;100141.97;;;20.28;41.98
65054;BME280;51639;47.828;35.038;2024-03-23T11:06:43;100112.22;;;20.58;41.99
65054;BME280;51639;47.828;35.038;2024-03-23T11:21:54;100095.91;;;20.86;39.58
65054;BME280;51639;47.828;35.038;2024-03-23T11:37:05;100093.16;;;21.17;41.30
65054;BME280;51639;47.828;35.038;2024-03-23T11:52:07;100079.44;;;21.23;41.40
65054;BME280;51639;47.828;35.038;2024-03-23T12:07:19;100074.41;;;19.71;42.56
65054;BME280;51639;47.828;35.038;2024-03-23T12:22:20;100061.28;;;17.27;46.38
65054;BME280;51639;47.828;35.038;2024-03-23T12:37:22;100063.06;;;16.37;50.82
65054;BME280;51639;47.828;35.038;2024-03-23T12:52:23;100060.19;;;16.13;51.75
65054;BME280;51639;47.828;35.038;2024-03-23T13:07:29;100046.34;;;15.89;53.85
65054;BME280;51639;47.828;35.038;2024-03-23T13:22:30;100035.41;;;15.89;53.08
65054;BME280;51639;47.828;35.038;2024-03-23T13:37:31;100014.00;;;15.20;53.87
65054;BME280;51639;47.828;35.038;2024-03-23T13:52:31;100016.78;;;14.58;51.64
65054;BME280;51639;47.828;35.038;2024-03-23T14:07:32;100012.91;;;14.47;50.04
65054;BME280;51639;47.828;35.038;2024-03-23T14:22:33;100008.53;;;14.06;49.20
65054;BME280;51639;47.828;35.038;2024-03-23T14:37:40;100009.09;;;14.00;47.89
65054;BME280;51639;47.828;35.038;2024-03-23T14:52:52;100009.72;;;13.83;48.09
65054;BME280;51639;47.828;35.038;2024-03-23T15:08:06;100000.44;;;13.80;48.55
65054;BME280;51639;47.828;35.038;2024-03-23T15:23:22;99986.72;;;13.71;50.89
65054;BME280;51639;47.828;35.038;2024-03-23T15:38:25;99979.03;;;13.22;53.19
65054;BME280;51639;47.828;35.038;2024-03-23T15:53:27;99982.81;;;12.99;59.93
65054;BME280;51639;47.828;35.038;2024-03-23T16:08:29;99993.09;;;12.28;73.37
65054;BME280;51639;47.828;35.038;2024-03-23T16:23:34;99995.13;;;11.99;85.00
65054;BME280;51639;47.828;35.038;2024-03-23T16:38:38;100008.84;;;11.79;82.24
65054;BME280;51639;47.828;35.038;2024-03-23T16:53:40;100014.63;;;11.65;94.04
65054;BME280;51639;47.828;35.038;2024-03-23T17:08:41;100019.41;;;11.77;86.75
65054;BME280;51639;47.828;35.038;2024-03-23T17:23:42;100025.50;;;11.65;86.00
65054;BME280;51639;47.828;35.038;2024-03-23T17:38:43;100043.94;;;11.74;90.17
65054;BME280;51639;47.828;35.038;2024-03-23T17:53:44;100054.66;;;11.48;91.39
65054;BME280;51639;47.828;35.038;2024-03-23T18:08:45;100027.06;;;11.34;92.88
65054;BME280;51639;47.828;35.038;2024-03-23T18:23:46;100034.88;;;10.79;100.00
65054;BME280;51639;47.828;35.038;2024-03-23T18:38:47;100020.44;;;10.46;100.00
65054;BME280;51639;47.828;35.038;2024-03-23T18:53:48;100008.56;;;9.31;100.00
65054;BME280;51639;47.828;35.038;2024-03-23T19:08:49;100023.63;;;9.08;100.00
65054;BME280;51639;47.828;35.038;2024-03-23T19:23:50;100030.22;;;8.50;100.00
65054;BME280;51639;47.828;35.038;2024-03-23T19:38:51;100031.75;;;8.17;100.00
65054;BME280;51639;47.828;35.038;2024-03-23T19:53:52;100019.81;;;8.48;100.00
65054;BME280;51639;47.828;35.038;2024-03-23T20:08:53;100015.72;;;7.99;100.00
65054;BME280;51639;47.828;35.038;2024-03-23T20:23:54;100013.38;;;8.01;100.00
65054;BME280;51639;47.828;35.038;2024-03-23T20:38:55;100018.59;;;8.19;100.00
65054;BME280;51639;47.828;35.038;2024-03-23T20:53:56;100008.78;;;8.32;100.00
65054;BME280;51639;47.828;35.038;2024-03-23T21:08:57;100008.75;;;8.66;100.00
65054;BME280;51639;47.828;35.038;2024-03-23T21:23:59;100012.97;;;8.71;100.00
65054;BME280;51639;47.828;35.038;2024-03-23T21:38:59;100021.84;;;8.41;100.00
65054;BME280;51639;47.828;35.038;2024-03-23T21:54:01;100019.22;;;8.34;100.00
65054;BME280;51639;47.828;35.038;2024-03-23T22:09:03;100029.63;;;7.98;100.00
65054;BME280;51639;47.828;35.038;2024-03-23T22:24:04;100024.50;;;7.69;100.00
65054;BME280;51639;47.828;35.038;2024-03-23T22:39:06;100027.13;;;7.32;100.00
65054;BME280;51639;47.828;35.038;2024-03-23T22:54:07;100013.91;;;7.44;100.00
65054;BME280;51639;47.828;35.038;2024-03-23T23:09:08;100010.94;;;7.32;100.00
65054;BME280;51639;47.828;35.038;2024-03-23T23:24:09;100018.66;;;7.30;100.00
65054;BME280;51639;47.828;35.038;2024-03-23T23:39:10;100011.06;;;7.10;100.00
65054;BME280;51639;47.828;35.038;2024-03-23T23:54:11;99997.66;;;7.03;100.00
